Time;durP1;ratioP1;P1;durP2;ratioP2;P2;SDS_P1;SDS_P2;PMS_P1;PMS_P2;Temp;Humidity;BMP_temperature;BMP_pressure;BME280_temperature;BME280_humidity;BME280_pressure;Samples;Min_cycle;Max_cycle;Signal;HPM_P1;HPM_P2
2024/02/09 00:00:17;;;;;;;7.75;3.80;;;12.10;99.90;;;;;;5056145;28;20202;-77
2024/02/09 00:02:44;;;;;;;8.30;3.50;;;12.10;99.90;;;;;;5062278;28;20680;-77
2024/02/09 00:05:12;;;;;;;6.60;3.38;;;12.10;99.90;;;;;;5089390;28;20613;-77
2024/02/09 00:07:38;;;;;;;9.88;3.78;;;12.00;99.90;;;;;;5071481;28;20195;-77
2024/02/09 00:10:07;;;;;;;10.87;3.60;;;12.10;99.90;;;;;;5056374;28;20171;-77
2024/02/09 00:12:34;;;;;;;8.57;3.47;;;12.10;99.90;;;;;;5093921;28;20669;-77
2024/02/09 00:15:06;;;;;;;10.90;4.15;;;12.10;99.90;;;;;;5075235;28;20274;-77
2024/02/09 00:17:35;;;;;;;8.35;3.40;;;12.00;99.90;;;;;;5066524;28;20183;-77
2024/02/09 00:20:07;;;;;;;6.75;3.00;;;12.00;99.90;;;;;;5068598;28;20175;-77
2024/02/09 00:22:35;;;;;;;8.63;3.63;;;12.00;99.90;;;;;;5076141;28;20200;-77
2024/02/09 00:25:04;;;;;;;8.32;3.17;;;12.00;99.90;;;;;;5066372;28;20176;-77
2024/02/09 00:27:31;;;;;;;6.78;3.40;;;12.10;99.90;;;;;;5074865;28;20599;-77
2024/02/09 00:29:57;;;;;;;6.20;2.90;;;12.10;99.90;;;;;;5075362;28;20183;-76
2024/02/09 00:32:23;;;;;;;9.03;3.87;;;12.10;99.90;;;;;;5061214;28;20586;-76
2024/02/09 00:34:49;;;;;;;8.13;3.50;;;12.10;99.90;;;;;;5103458;28;20992;-77
2024/02/09 00:37:14;;;;;;;7.53;3.10;;;12.10;99.90;;;;;;5092731;28;20672;-77
2024/02/09 00:39:42;;;;;;;12.77;3.63;;;12.20;99.90;;;;;;5075244;28;20684;-77
2024/02/09 00:42:12;;;;;;;12.27;3.25;;;12.20;99.90;;;;;;5075055;28;20199;-77
2024/02/09 00:44:38;;;;;;;12.77;5.37;;;12.20;99.90;;;;;;5066628;28;20191;-77
2024/02/09 00:47:04;;;;;;;7.93;3.40;;;12.20;99.90;;;;;;5082863;28;20922;-76
2024/02/09 00:49:32;;;;;;;9.57;3.97;;;12.20;99.90;;;;;;5074460;28;20202;-76
2024/02/09 00:52:00;;;;;;;12.63;4.90;;;12.20;99.90;;;;;;5073710;28;20686;-76
2024/02/09 00:54:29;;;;;;;8.93;3.63;;;12.10;99.90;;;;;;5073622;28;20184;-77
2024/02/09 00:56:56;;;;;;;13.40;4.05;;;12.10;99.90;;;;;;5057483;28;20175;-76
2024/02/09 00:59:23;;;;;;;11.07;3.90;;;12.00;99.90;;;;;;5065333;28;20294;-76
2024/02/09 01:01:53;;;;;;;6.90;3.53;;;12.00;99.90;;;;;;5041642;28;20203;-77
2024/02/09 01:04:20;;;;;;;10.85;3.92;;;12.00;99.90;;;;;;5057579;28;20590;-77
2024/02/09 01:06:48;;;;;;;14.38;4.50;;;11.90;99.90;;;;;;5074487;28;20203;-77
2024/02/09 01:09:15;;;;;;;8.88;4.50;;;11.90;99.90;;;;;;5091689;28;20196;-77
2024/02/09 01:11:41;;;;;;;9.35;3.80;;;11.90;99.90;;;;;;5096859;28;20183;-77
2024/02/09 02:46:58;;;;;;;4.50;2.00;;;12.00;99.90;;;;;;5091903;28;20249;-76
2024/02/09 03:06:05;;;;;;;6.15;2.40;;;12.00;99.90;;;;;;5104788;28;20213;-77
2024/02/09 03:08:31;;;;;;;4.35;2.13;;;12.00;99.90;;;;;;5058805;28;20197;-77
2024/02/09 03:10:56;;;;;;;7.77;2.30;;;12.00;99.90;;;;;;5092580;28;20171;-77
2024/02/09 03:13:22;;;;;;;8.20;2.07;;;12.00;99.90;;;;;;5111010;28;20171;-77
2024/02/09 03:15:48;;;;;;;6.30;1.97;;;12.00;99.90;;;;;;5092349;28;20308;-77
2024/02/09 03:18:17;;;;;;;3.83;1.43;;;12.00;99.90;;;;;;5108731;28;20183;-78
2024/02/09 03:20:43;;;;;;;5.30;1.50;;;12.00;99.90;;;;;;5079778;28;20612;-77
2024/02/09 03:23:09;;;;;;;5.20;1.98;;;11.90;99.90;;;;;;5070353;28;20624;-77
2024/02/09 03:25:35;;;;;;;4.80;1.83;;;12.00;99.90;;;;;;5036203;28;20262;-77
2024/02/09 03:28:00;;;;;;;4.30;1.63;;;12.00;99.90;;;;;;5096969;28;20207;-77
2024/02/09 03:30:26;;;;;;;2.60;1.63;;;12.00;99.90;;;;;;5070962;28;20660;-76
2024/02/09 03:32:53;;;;;;;3.93;1.53;;;11.90;99.90;;;;;;5089631;28;20175;-77
2024/02/09 03:35:19;;;;;;;5.80;1.40;;;11.90;99.90;;;;;;5054455;28;20585;-76
2024/02/09 03:37:45;;;;;;;2.83;1.35;;;12.00;99.90;;;;;;5074134;28;20570;-77
2024/02/09 03:40:14;;;;;;;3.22;0.90;;;12.00;99.90;;;;;;5074613;28;20580;-76
2024/02/09 03:42:41;;;;;;;4.45;1.50;;;11.90;99.90;;;;;;5090060;28;20234;-76
2024/02/09 03:45:07;;;;;;;3.22;1.30;;;11.80;99.90;;;;;;5072707;28;20233;-76
2024/02/09 03:47:33;;;;;;;3.30;1.30;;;11.80;99.90;;;;;;5075654;28;20168;-77
2024/02/09 03:49:59;;;;;;;2.90;1.00;;;11.90;99.90;;;;;;5059447;28;20167;-77
2024/02/09 03:52:27;;;;;;;2.90;1.00;;;11.90;99.90;;;;;;5076145;28;20184;-77
2024/02/09 03:54:54;;;;;;;3.63;1.33;;;11.80;99.90;;;;;;5075479;28;20184;-76
2024/02/09 03:57:24;;;;;;;3.67;1.63;;;11.80;99.90;;;;;;5075764;28;20203;-76
2024/02/09 03:59:50;;;;;;;3.03;0.90;;;11.80;99.90;;;;;;5093426;28;20176;-77
2024/02/09 04:02:17;;;;;;;2.45;1.10;;;11.80;99.90;;;;;;5075313;28;21281;-77
2024/02/09 04:04:43;;;;;;;2.53;1.45;;;11.80;99.90;;;;;;5093526;28;20262;-77
2024/02/09 04:07:09;;;;;;;2.13;0.85;;;11.70;99.90;;;;;;5058739;28;20187;-77
2024/02/09 04:09:36;;;;;;;2.17;0.90;;;11.70;99.90;;;;;;5075509;28;20195;-77
2024/02/09 04:12:05;;;;;;;3.75;1.27;;;11.70;99.90;;;;;;5058964;28;20221;-77
2024/02/09 04:14:31;;;;;;;1.77;0.80;;;11.70;99.90;;;;;;5059392;28;20494;-77
2024/02/09 04:16:58;;;;;;;4.90;1.02;;;11.70;99.90;;;;;;5096778;28;20180;-77
2024/02/09 04:19:26;;;;;;;2.00;0.70;;;11.80;99.90;;;;;;5074968;28;20196;-77
2024/02/09 04:21:53;;;;;;;4.47;0.90;;;11.70;99.90;;;;;;5077993;28;20606;-77
2024/02/09 04:24:25;;;;;;;4.53;0.90;;;11.70;99.90;;;;;;5073825;28;20179;-76
2024/02/09 04:26:52;;;;;;;3.75;1.80;;;11.70;99.90;;;;;;5057957;28;20635;-76
2024/02/09 04:29:19;;;;;;;6.45;1.20;;;11.70;99.90;;;;;;5066476;28;20221;-76
2024/02/09 04:31:45;;;;;;;2.45;1.15;;;11.60;99.90;;;;;;5092487;28;20179;-76
2024/02/09 04:34:12;;;;;;;2.97;1.10;;;11.60;99.90;;;;;;5074158;28;20206;-75
2024/02/09 04:36:47;;;;;;;3.55;1.48;;;11.60;99.90;;;;;;5092855;28;20606;-75
2024/02/09 04:39:13;;;;;;;2.00;0.80;;;11.50;99.90;;;;;;5074773;28;20252;-76
2024/02/09 04:41:42;;;;;;;4.53;1.00;;;11.50;99.90;;;;;;5057844;28;20365;-76
2024/02/09 04:44:08;;;;;;;2.40;1.10;;;11.50;99.90;;;;;;5092625;28;20164;-76
2024/02/09 04:46:34;;;;;;;3.33;0.90;;;11.50;99.90;;;;;;5057513;28;20281;-76
2024/02/09 04:49:01;;;;;;;3.88;1.10;;;11.50;99.90;;;;;;5083759;28;20677;-77
2024/02/09 04:51:28;;;;;;;3.10;0.88;;;11.50;99.90;;;;;;5075520;28;20168;-76
2024/02/09 04:53:55;;;;;;;3.00;0.82;;;11.50;99.90;;;;;;5078127;28;20258;-77
2024/02/09 04:56:32;;;;;;;1.70;0.90;;;11.50;99.90;;;;;;5091783;28;20182;-77
2024/02/09 04:58:59;;;;;;;1.80;1.10;;;11.50;99.90;;;;;;5072850;22;20195;-79
2024/02/09 05:01:27;;;;;;;1.90;0.95;;;11.60;99.90;;;;;;5108518;28;20190;-82
2024/02/09 05:03:55;;;;;;;1.90;0.90;;;11.60;99.90;;;;;;5112155;28;20205;-80
2024/02/09 05:06:20;;;;;;;2.20;1.10;;;11.60;99.90;;;;;;5099891;28;20156;-80
2024/02/09 05:08:46;;;;;;;1.90;1.00;;;11.60;99.90;;;;;;5090404;28;20175;-80
2024/02/09 05:11:12;;;;;;;3.20;1.83;;;11.60;99.90;;;;;;5058899;28;20172;-80
2024/02/09 05:13:38;;;;;;;2.38;1.20;;;11.70;99.90;;;;;;5071197;28;20597;-80
2024/02/09 05:16:04;;;;;;;3.00;1.00;;;11.70;99.90;;;;;;5081581;28;20176;-80
2024/02/09 05:18:30;;;;;;;7.10;1.60;;;11.70;99.90;;;;;;5095275;28;20593;-81
2024/02/09 05:20:57;;;;;;;1.93;1.30;;;11.80;99.90;;;;;;5094977;28;20617;-80
2024/02/09 05:23:23;;;;;;;2.33;1.30;;;11.80;99.90;;;;;;5084759;28;20278;-80
2024/02/09 05:25:49;;;;;;;2.57;1.30;;;11.80;99.90;;;;;;5092698;28;20589;-81
2024/02/09 05:28:14;;;;;;;1.80;1.00;;;11.80;99.90;;;;;;5098181;28;20167;-83
2024/02/09 05:30:40;;;;;;;2.77;1.30;;;11.80;99.90;;;;;;5107168;28;20204;-80
2024/02/09 05:33:06;;;;;;;3.50;1.53;;;11.80;99.90;;;;;;5121594;28;20187;-80
2024/02/09 05:35:31;;;;;;;4.37;1.70;;;11.90;99.90;;;;;;5102362;28;20270;-80
2024/02/09 05:37:57;;;;;;;4.60;1.67;;;11.90;99.90;;;;;;5115456;28;20176;-80
2024/02/09 05:40:23;;;;;;;5.77;2.00;;;11.90;99.90;;;;;;5115980;28;20822;-81
2024/02/09 05:42:48;;;;;;;2.97;1.57;;;11.90;99.90;;;;;;5115057;28;20199;-81
2024/02/09 05:45:14;;;;;;;2.77;1.53;;;11.90;99.90;;;;;;5097773;28;20206;-81
2024/02/09 05:47:40;;;;;;;3.03;1.07;;;11.90;99.90;;;;;;5097416;28;20649;-81
2024/02/09 05:50:06;;;;;;;2.20;1.27;;;11.90;99.90;;;;;;5081491;28;20206;-80
2024/02/09 05:52:31;;;;;;;1.70;1.00;;;11.90;99.90;;;;;;5118311;28;20219;-81
2024/02/09 05:54:58;;;;;;;3.00;1.37;;;11.90;99.90;;;;;;5118874;28;20605;-81
2024/02/09 05:57:27;;;;;;;2.78;1.75;;;11.90;99.90;;;;;;5113021;28;20238;-81
2024/02/09 05:59:53;;;;;;;2.60;1.05;;;11.90;99.90;;;;;;5095842;28;20218;-81
2024/02/09 06:02:25;;;;;;;3.00;1.30;;;11.90;99.90;;;;;;5122481;28;20175;-82
2024/02/09 06:04:50;;;;;;;2.10;1.00;;;11.90;99.90;;;;;;5105449;28;20179;-82
2024/02/09 06:07:16;;;;;;;3.53;1.47;;;11.90;99.90;;;;;;5113908;28;20210;-82
2024/02/09 06:09:42;;;;;;;5.33;1.20;;;11.90;99.90;;;;;;5095018;28;20211;-82
2024/02/09 06:12:08;;;;;;;3.03;1.80;;;11.90;99.90;;;;;;5086650;28;20643;-82
2024/02/09 06:14:33;;;;;;;2.20;1.90;;;11.90;99.90;;;;;;5095158;28;20182;-82
2024/02/09 06:16:59;;;;;;;2.43;1.00;;;11.90;99.90;;;;;;5124489;28;20175;-82
2024/02/09 06:19:24;;;;;;;2.03;0.93;;;11.80;99.90;;;;;;5106812;28;20175;-82
2024/02/09 06:21:50;;;;;;;2.10;1.30;;;11.80;99.90;;;;;;5095160;28;20191;-82
2024/02/09 06:24:16;;;;;;;3.57;1.00;;;11.80;99.90;;;;;;5105976;28;20166;-82
2024/02/09 06:26:42;;;;;;;1.57;1.10;;;11.80;99.90;;;;;;5081900;28;20192;-82
2024/02/09 06:29:10;;;;;;;2.47;0.90;;;11.80;99.90;;;;;;5122309;28;20267;-82
2024/02/09 06:31:42;;;;;;;4.63;0.90;;;11.80;99.90;;;;;;5115749;28;20222;-81
2024/02/09 06:34:08;;;;;;;5.10;1.55;;;11.70;99.90;;;;;;5089832;28;20176;-80
2024/02/09 06:36:34;;;;;;;2.30;0.90;;;11.70;99.90;;;;;;5090648;28;20186;-80
2024/02/09 06:38:59;;;;;;;2.77;1.00;;;11.70;99.90;;;;;;5074583;28;20618;-80
2024/02/09 06:41:25;;;;;;;2.43;0.87;;;11.70;99.90;;;;;;5098131;28;20170;-80
2024/02/09 06:43:54;;;;;;;2.33;1.00;;;11.70;99.90;;;;;;5114957;28;20179;-80
2024/02/09 06:46:19;;;;;;;3.15;0.70;;;11.80;99.90;;;;;;5101789;28;20186;-80
2024/02/09 06:48:46;;;;;;;1.90;0.80;;;11.80;99.90;;;;;;5116471;28;20176;-79
2024/02/09 06:51:11;;;;;;;1.50;0.83;;;11.80;99.90;;;;;;5116667;28;20180;-80
2024/02/09 06:53:38;;;;;;;4.70;0.90;;;11.80;99.90;;;;;;5098625;28;20590;-80
2024/02/09 06:56:11;;;;;;;1.67;0.80;;;11.80;99.90;;;;;;5110963;28;20163;-79
2024/02/09 06:58:38;;;;;;;3.10;1.10;;;11.90;99.90;;;;;;5099153;28;20179;-83
2024/02/09 07:01:09;;;;;;;3.88;0.90;;;11.90;99.90;;;;;;5100173;28;20623;-82
2024/02/09 07:03:35;;;;;;;1.90;1.00;;;11.90;99.90;;;;;;5094097;28;20202;-83
2024/02/09 07:06:03;;;;;;;2.70;1.20;;;12.00;99.90;;;;;;5078321;28;21160;-83
2024/02/09 07:08:36;;;;;;;2.42;0.90;;;12.00;99.90;;;;;;5095456;28;20237;-83
2024/02/09 07:11:03;;;;;;;2.47;0.98;;;12.00;99.90;;;;;;5072853;28;20191;-82
2024/02/09 07:13:29;;;;;;;2.67;1.00;;;12.00;99.90;;;;;;5077957;28;20230;-82
2024/02/09 07:15:55;;;;;;;3.70;1.07;;;12.00;99.90;;;;;;5095339;28;20585;-81
2024/02/09 07:18:20;;;;;;;2.37;0.80;;;12.00;99.90;;;;;;5071839;28;20179;-81
2024/02/09 07:20:46;;;;;;;4.00;1.03;;;11.90;99.90;;;;;;5054353;28;21278;-82
2024/02/09 07:23:12;;;;;;;3.93;0.93;;;12.00;99.90;;;;;;5072756;28;20183;-82
2024/02/09 07:25:38;;;;;;;3.40;1.00;;;12.00;99.90;;;;;;5074683;28;20264;-81
2024/02/09 07:28:03;;;;;;;1.70;0.97;;;12.00;99.90;;;;;;5082076;28;20582;-81
2024/02/09 07:30:29;;;;;;;3.13;0.90;;;12.00;99.90;;;;;;5089557;28;20281;-80
2024/02/09 07:32:55;;;;;;;3.03;1.57;;;12.00;99.90;;;;;;5090801;28;20219;-79
2024/02/09 07:35:20;;;;;;;5.00;1.60;;;12.00;99.90;;;;;;5120326;28;20213;-79
2024/02/09 07:37:46;;;;;;;3.97;1.10;;;12.00;99.90;;;;;;5103004;28;20183;-79
2024/02/09 07:40:16;;;;;;;3.23;1.57;;;12.00;99.90;;;;;;5090324;28;20708;-78
2024/02/09 07:42:43;;;;;;;3.80;1.27;;;12.10;99.90;;;;;;5085895;28;20665;-80
2024/02/09 07:45:12;;;;;;;2.27;1.47;;;12.10;99.90;;;;;;5104905;28;20569;-79
2024/02/09 07:47:38;;;;;;;2.50;1.00;;;12.10;99.90;;;;;;5088574;28;20600;-80
2024/02/09 07:50:04;;;;;;;2.57;1.30;;;12.20;99.90;;;;;;5082504;28;20637;-79
2024/02/09 07:52:30;;;;;;;3.58;1.30;;;12.20;99.90;;;;;;5115619;28;20556;-79
2024/02/09 07:54:56;;;;;;;3.70;1.20;;;12.30;99.90;;;;;;5094907;28;20168;-80
2024/02/09 07:57:22;;;;;;;2.10;1.37;;;12.30;99.90;;;;;;5093959;28;20652;-79
2024/02/09 07:59:49;;;;;;;5.10;1.97;;;12.40;99.90;;;;;;5098536;28;20712;-79
2024/02/09 08:02:15;;;;;;;4.47;1.40;;;12.40;99.90;;;;;;5110299;28;20667;-79
2024/02/09 08:04:41;;;;;;;3.03;1.00;;;12.50;99.90;;;;;;5093058;28;21004;-80
2024/02/09 08:07:08;;;;;;;5.20;1.40;;;12.50;99.90;;;;;;5110447;28;20179;-79
2024/02/09 08:09:36;;;;;;;3.63;1.13;;;12.50;99.90;;;;;;5093696;28;20227;-78
2024/02/09 08:12:01;;;;;;;4.30;1.83;;;12.60;99.90;;;;;;5092495;28;20983;-79
2024/02/09 08:14:27;;;;;;;2.83;1.10;;;12.60;99.90;;;;;;5093698;28;20589;-78
2024/02/09 08:16:54;;;;;;;2.43;1.10;;;12.60;99.90;;;;;;5044788;28;20244;-78
2024/02/09 08:19:20;;;;;;;2.70;1.33;;;12.60;99.90;;;;;;5073642;28;20601;-78
2024/02/09 08:21:46;;;;;;;4.03;1.30;;;12.60;99.90;;;;;;5072189;28;20645;-77
2024/02/09 08:24:14;;;;;;;5.27;1.40;;;12.60;99.90;;;;;;5101222;28;20574;-80
2024/02/09 08:26:41;;;;;;;2.40;1.47;;;12.70;99.90;;;;;;5067821;28;20471;-78
2024/02/09 08:29:07;;;;;;;5.90;1.70;;;12.70;99.90;;;;;;5095117;28;20688;-78
2024/02/09 08:31:32;;;;;;;3.20;1.40;;;12.70;99.90;;;;;;5062758;28;21165;-78
2024/02/09 08:33:59;;;;;;;4.27;1.30;;;12.70;99.90;;;;;;5091396;28;20176;-78
2024/02/09 08:36:25;;;;;;;4.40;1.20;;;12.80;99.90;;;;;;5078603;28;20176;-78
2024/02/09 08:38:51;;;;;;;3.40;1.30;;;12.80;99.90;;;;;;5092496;28;20661;-78
2024/02/09 08:41:20;;;;;;;2.40;1.30;;;12.80;99.90;;;;;;5074097;28;20597;-78
2024/02/09 08:43:47;;;;;;;4.13;1.73;;;12.90;99.90;;;;;;5057835;28;20589;-78
2024/02/09 08:46:13;;;;;;;3.83;1.65;;;12.90;99.90;;;;;;5093543;28;20672;-78
2024/02/09 08:48:38;;;;;;;2.53;1.30;;;13.00;99.90;;;;;;5077974;28;20240;-78
2024/02/09 08:51:04;;;;;;;2.87;1.03;;;13.00;99.90;;;;;;5091875;28;20598;-78
2024/02/09 08:53:30;;;;;;;3.73;1.33;;;13.10;99.90;;;;;;5083288;28;20207;-78
2024/02/09 08:55:57;;;;;;;3.03;1.33;;;13.10;99.90;;;;;;5092628;28;20176;-77
2024/02/09 08:58:23;;;;;;;4.23;1.50;;;13.10;99.90;;;;;;5092748;28;20574;-77
2024/02/09 09:00:48;;;;;;;2.50;1.10;;;13.20;99.90;;;;;;5077767;28;20623;-79
2024/02/09 09:03:14;;;;;;;2.80;1.27;;;13.20;99.90;;;;;;5077201;28;20179;-79
2024/02/09 09:05:41;;;;;;;2.80;1.13;;;13.30;99.90;;;;;;5074545;28;20175;-77
2024/02/09 09:08:09;;;;;;;4.40;0.80;;;13.30;99.90;;;;;;5084348;28;20649;-78
2024/02/09 09:10:35;;;;;;;2.17;1.10;;;13.30;99.90;;;;;;5090656;28;20590;-77
2024/02/09 09:13:00;;;;;;;2.33;1.00;;;13.30;99.90;;;;;;5079782;28;20647;-77
2024/02/09 09:15:26;;;;;;;3.93;1.13;;;13.40;99.90;;;;;;5071722;28;20586;-77
2024/02/09 09:17:52;;;;;;;2.80;1.17;;;13.40;99.90;;;;;;5080139;28;20585;-77
2024/02/09 09:20:18;;;;;;;3.60;1.50;;;13.40;99.90;;;;;;5090282;28;20191;-77
2024/02/09 09:22:43;;;;;;;1.93;0.90;;;13.40;99.90;;;;;;5072228;28;20641;-77
2024/02/09 09:25:09;;;;;;;1.60;0.80;;;13.50;99.90;;;;;;5090758;28;20180;-77
2024/02/09 09:27:35;;;;;;;1.97;0.90;;;13.50;99.90;;;;;;5082230;28;20180;-76
2024/02/09 09:30:04;;;;;;;1.93;1.07;;;13.50;99.90;;;;;;5068998;28;20219;-76
2024/02/09 09:32:32;;;;;;;2.60;0.90;;;13.60;99.90;;;;;;5092145;28;20631;-77
2024/02/09 09:34:59;;;;;;;4.03;1.43;;;13.70;99.90;;;;;;5074676;28;20578;-76
2024/02/09 09:37:24;;;;;;;2.23;0.90;;;13.70;99.90;;;;;;5087978;28;20584;-76
2024/02/09 09:39:50;;;;;;;3.33;1.13;;;13.80;99.90;;;;;;5075711;28;20605;-76
2024/02/09 09:42:16;;;;;;;4.33;0.90;;;13.80;99.90;;;;;;5077694;28;20509;-77
2024/02/09 09:44:42;;;;;;;2.07;1.03;;;13.90;99.90;;;;;;5093751;28;20182;-77
2024/02/09 09:47:09;;;;;;;3.30;0.90;;;14.00;99.90;;;;;;5081820;28;20178;-76
2024/02/09 09:49:39;;;;;;;3.10;1.07;;;14.00;99.90;;;;;;5091943;28;20549;-76
2024/02/09 09:52:11;;;;;;;3.87;0.90;;;14.10;99.90;;;;;;5073674;28;20672;-76
2024/02/09 09:54:37;;;;;;;3.57;0.90;;;14.10;99.90;;;;;;5090492;28;20578;-77
2024/02/09 09:57:04;;;;;;;1.80;0.90;;;14.20;99.90;;;;;;5091542;28;20593;-77
2024/02/09 09:59:31;;;;;;;3.43;1.37;;;14.20;99.90;;;;;;5073259;28;20617;-77
2024/02/09 10:01:57;;;;;;;3.23;1.00;;;14.30;99.90;;;;;;5056887;28;21217;-77
2024/02/09 10:04:23;;;;;;;3.17;1.33;;;14.30;99.90;;;;;;5083655;28;20680;-77
2024/02/09 10:06:49;;;;;;;1.70;1.10;;;14.40;99.90;;;;;;5078770;28;20180;-77
2024/02/09 10:09:16;;;;;;;1.80;0.93;;;14.40;99.90;;;;;;5091715;28;20617;-77
2024/02/09 10:11:45;;;;;;;1.93;1.00;;;14.50;99.90;;;;;;5081148;28;21286;-77
2024/02/09 10:14:14;;;;;;;4.70;1.10;;;14.50;99.90;;;;;;5082659;28;20614;-77
2024/02/09 10:16:45;;;;;;;3.83;1.10;;;14.50;99.90;;;;;;5091312;28;20604;-77
2024/02/09 10:19:13;;;;;;;4.57;1.40;;;14.60;99.90;;;;;;5082194;28;20590;-77
2024/02/09 10:21:39;;;;;;;2.10;1.10;;;14.60;99.90;;;;;;5075088;28;20582;-77
2024/02/09 10:24:06;;;;;;;2.37;1.10;;;14.60;99.90;;;;;;5089928;28;20601;-77
2024/02/09 10:26:33;;;;;;;3.63;1.47;;;14.60;99.90;;;;;;5097947;28;20580;-76
2024/02/09 10:28:59;;;;;;;3.63;1.23;;;14.60;99.90;;;;;;5093129;28;20638;-76
2024/02/09 10:31:27;;;;;;;2.87;1.30;;;14.60;99.90;;;;;;5073244;28;20616;-76
2024/02/09 10:33:56;;;;;;;3.23;1.33;;;14.70;99.90;;;;;;5081277;28;20946;-77
2024/02/09 10:36:26;;;;;;;2.50;1.00;;;14.70;99.90;;;;;;5106451;28;20578;-76
2024/02/09 10:38:51;;;;;;;2.40;1.10;;;14.70;99.90;;;;;;5093557;28;21072;-77
2024/02/09 10:41:21;;;;;;;3.00;1.07;;;14.80;99.90;;;;;;5082099;28;20653;-77
2024/02/09 10:43:51;;;;;;;4.10;1.23;;;14.80;99.90;;;;;;5096365;28;20179;-77
2024/02/09 10:46:18;;;;;;;1.87;1.00;;;14.90;99.90;;;;;;5078714;28;21181;-77
2024/02/09 10:48:48;;;;;;;2.40;1.17;;;14.90;99.90;;;;;;5086236;28;20582;-77
2024/02/09 10:51:16;;;;;;;2.73;1.13;;;14.90;99.90;;;;;;5083416;28;20638;-78
2024/02/09 10:54:01;;;;;;;2.70;1.10;;;14.80;99.90;;;;;;5063553;28;20625;-77
2024/02/09 10:56:29;;;;;;;4.40;1.47;;;14.90;99.90;;;;;;5071966;28;20589;-76
2024/02/09 10:58:56;;;;;;;3.60;1.30;;;14.90;99.90;;;;;;5090577;28;20936;-76
2024/02/09 11:01:25;;;;;;;2.70;1.50;;;14.90;99.90;;;;;;5090517;28;20584;-77
2024/02/09 11:03:51;;;;;;;3.97;1.23;;;14.90;99.90;;;;;;5072200;28;20982;-77
2024/02/09 11:06:16;;;;;;;3.20;1.10;;;15.00;99.90;;;;;;5099230;28;20573;-78
2024/02/09 11:08:43;;;;;;;2.37;1.00;;;15.00;99.90;;;;;;5088642;28;20573;-78
2024/02/09 11:11:10;;;;;;;3.07;1.83;;;15.00;99.90;;;;;;5099505;28;20187;-78
2024/02/09 11:13:36;;;;;;;2.43;1.30;;;15.10;99.90;;;;;;5081146;28;21038;-78
2024/02/09 11:16:02;;;;;;;2.13;1.10;;;15.10;99.90;;;;;;5100708;28;20633;-78
2024/02/09 11:18:35;;;;;;;5.60;1.13;;;15.10;99.90;;;;;;5093113;28;20254;-78
2024/02/09 11:21:07;;;;;;;2.23;1.30;;;15.20;99.90;;;;;;5115747;28;20854;-73
2024/02/09 11:23:37;;;;;;;3.67;1.10;;;15.20;99.90;;;;;;5112800;28;20577;-74
2024/02/09 11:26:08;;;;;;;3.30;1.40;;;15.30;99.90;;;;;;5092265;28;20606;-74
2024/02/09 11:28:34;;;;;;;2.40;1.40;;;15.30;99.90;;;;;;5077517;28;21157;-73
2024/02/09 11:31:00;;;;;;;3.27;1.03;;;15.30;99.90;;;;;;5090421;28;20601;-73
2024/02/09 11:33:28;;;;;;;1.87;1.00;;;15.30;99.90;;;;;;5092232;28;20199;-74
2024/02/09 11:35:53;;;;;;;3.20;1.03;;;15.30;99.90;;;;;;5109907;28;20584;-74
2024/02/09 11:38:21;;;;;;;1.90;0.93;;;15.30;99.90;;;;;;5075537;28;20604;-73
2024/02/09 11:40:51;;;;;;;3.10;1.10;;;15.30;99.90;;;;;;5089174;28;20610;-74
2024/02/09 11:43:17;;;;;;;5.10;2.17;;;15.30;99.90;;;;;;5082642;28;20684;-73
2024/02/09 11:45:46;;;;;;;4.20;1.60;;;15.40;99.90;;;;;;5090462;28;20933;-73
2024/02/09 11:48:15;;;;;;;2.03;1.20;;;15.40;99.90;;;;;;5091995;28;20580;-73
2024/02/09 11:50:43;;;;;;;2.20;1.00;;;15.40;99.90;;;;;;5091978;28;20609;-73
2024/02/09 11:53:09;;;;;;;1.80;1.00;;;15.50;99.90;;;;;;5092066;28;21077;-72
2024/02/09 11:55:39;;;;;;;3.30;1.00;;;15.40;99.90;;;;;;5095582;28;20570;-72
2024/02/09 11:58:08;;;;;;;1.60;0.90;;;15.40;99.90;;;;;;5075793;28;20935;-73
2024/02/09 12:00:34;;;;;;;2.03;1.00;;;15.50;99.90;;;;;;5104264;28;20652;-72
2024/02/09 12:03:00;;;;;;;2.23;0.90;;;15.50;99.90;;;;;;5075264;28;21033;-72
2024/02/09 12:05:26;;;;;;;1.80;1.03;;;15.50;99.90;;;;;;5084122;28;20573;-72
2024/02/09 12:07:53;;;;;;;3.90;1.20;;;15.50;99.90;;;;;;5059157;28;20606;-72
2024/02/09 12:10:20;;;;;;;2.60;1.13;;;15.50;99.90;;;;;;5092196;28;20731;-73
2024/02/09 12:12:49;;;;;;;2.80;1.30;;;15.50;99.90;;;;;;5094841;28;20628;-73
2024/02/09 12:15:19;;;;;;;2.53;1.40;;;15.60;99.90;;;;;;5075757;28;20585;-73
2024/02/09 12:17:46;;;;;;;2.40;1.23;;;15.60;99.90;;;;;;5095553;28;21172;-72
2024/02/09 12:20:14;;;;;;;3.20;1.00;;;15.60;99.90;;;;;;5075304;28;21027;-72
2024/02/09 12:22:41;;;;;;;2.47;1.17;;;15.60;99.90;;;;;;5109796;28;20616;-74
2024/02/09 12:25:09;;;;;;;2.50;1.30;;;15.60;99.90;;;;;;5095082;28;20584;-73
2024/02/09 12:27:35;;;;;;;2.77;1.00;;;15.60;99.90;;;;;;5078836;28;21049;-72
2024/02/09 12:30:06;;;;;;;2.20;1.30;;;15.70;99.90;;;;;;5095553;28;20719;-73
2024/02/09 12:32:32;;;;;;;3.43;1.77;;;15.80;99.90;;;;;;5076812;28;20654;-72
2024/02/09 12:34:58;;;;;;;3.20;1.40;;;15.90;99.90;;;;;;5109344;28;20696;-77
2024/02/09 12:37:24;;;;;;;3.40;1.40;;;16.00;99.90;;;;;;5075694;28;20179;-77
2024/02/09 12:39:54;;;;;;;3.27;1.20;;;16.10;99.90;;;;;;5109799;28;20425;-77
2024/02/09 12:42:33;;;;;;;3.10;1.70;;;16.20;99.90;;;;;;5091894;28;20578;-76
2024/02/09 12:45:00;;;;;;;3.03;1.43;;;16.20;99.90;;;;;;5093063;28;20592;-77
2024/02/09 12:47:26;;;;;;;2.50;1.30;;;16.30;99.90;;;;;;5062934;28;20675;-76
2024/02/09 12:49:54;;;;;;;2.60;1.23;;;16.40;99.90;;;;;;5113450;28;20711;-77
2024/02/09 12:52:22;;;;;;;2.97;1.53;;;16.50;99.90;;;;;;5095314;28;20207;-77
2024/02/09 12:54:48;;;;;;;1.70;0.90;;;16.50;99.90;;;;;;5094772;28;20683;-76
2024/02/09 12:57:13;;;;;;;3.77;1.40;;;16.50;99.90;;;;;;5102212;28;21010;-76
2024/02/09 12:59:42;;;;;;;2.13;1.00;;;16.60;99.90;;;;;;5092680;28;20230;-76
2024/02/09 13:02:10;;;;;;;2.83;1.23;;;16.60;99.90;;;;;;5078118;28;20666;-76
2024/02/09 13:04:37;;;;;;;2.97;1.83;;;16.60;99.90;;;;;;5094034;28;20608;-74
2024/02/09 13:07:06;;;;;;;4.23;1.60;;;16.70;99.90;;;;;;5077770;28;20588;-73
2024/02/09 13:09:32;;;;;;;3.50;1.40;;;16.60;99.90;;;;;;5108369;28;20704;-72
2024/02/09 13:11:59;;;;;;;2.90;1.60;;;16.60;99.90;;;;;;5093518;28;20629;-73
2024/02/09 13:14:25;;;;;;;2.77;1.40;;;16.50;99.90;;;;;;5075978;28;20613;-72
2024/02/09 13:16:51;;;;;;;3.60;1.27;;;16.50;99.90;;;;;;5092815;28;20605;-73
2024/02/09 13:19:22;;;;;;;2.20;1.13;;;16.40;99.90;;;;;;5112534;28;21205;-73
2024/02/09 13:22:08;;;;;;;3.50;1.10;;;16.40;99.90;;;;;;5094157;28;20182;-73
2024/02/09 13:24:39;;;;;;;2.67;1.20;;;16.30;99.90;;;;;;5112398;28;20585;-73
2024/02/09 13:27:12;;;;;;;6.50;2.13;;;16.30;99.90;;;;;;5094192;28;20585;-73
2024/02/09 13:29:38;;;;;;;2.43;1.00;;;16.30;99.90;;;;;;5069041;28;20619;-74
2024/02/09 13:32:04;;;;;;;2.63;1.00;;;16.30;99.90;;;;;;5094197;28;20656;-73
2024/02/09 13:34:30;;;;;;;4.27;1.60;;;16.30;99.90;;;;;;5093806;28;20684;-74
2024/02/09 13:36:56;;;;;;;2.37;1.00;;;16.30;99.90;;;;;;5094375;28;21036;-74
2024/02/09 13:39:26;;;;;;;2.80;0.90;;;16.30;99.90;;;;;;5085529;28;20599;-74
2024/02/09 13:41:53;;;;;;;2.30;1.43;;;16.30;99.90;;;;;;5094009;28;20603;-74
2024/02/09 13:44:18;;;;;;;1.60;1.20;;;16.30;99.90;;;;;;5059974;28;21218;-74
2024/02/09 13:46:44;;;;;;;1.70;0.90;;;16.30;99.90;;;;;;5093850;28;20691;-73
2024/02/09 13:49:10;;;;;;;2.03;1.07;;;16.30;99.90;;;;;;5076959;28;20195;-73
2024/02/09 13:51:36;;;;;;;3.07;1.30;;;16.30;99.90;;;;;;5112069;28;20581;-73
2024/02/09 13:54:01;;;;;;;2.13;1.10;;;16.30;99.90;;;;;;5093424;28;20685;-74
2024/02/09 13:56:28;;;;;;;2.53;1.13;;;16.30;99.90;;;;;;5093842;28;20181;-74
2024/02/09 13:58:54;;;;;;;2.23;1.00;;;16.40;99.90;;;;;;5110945;28;20182;-74
2024/02/09 14:01:21;;;;;;;1.90;0.87;;;16.40;99.90;;;;;;5081691;28;20590;-73
2024/02/09 14:03:50;;;;;;;3.90;1.30;;;16.40;99.90;;;;;;5091613;28;20673;-73
2024/02/09 14:06:17;;;;;;;3.63;1.13;;;16.40;99.90;;;;;;5093694;28;20944;-74
2024/02/09 14:08:45;;;;;;;2.63;1.07;;;16.40;99.90;;;;;;5094971;28;20632;-75
2024/02/09 14:11:13;;;;;;;2.17;0.90;;;16.40;99.90;;;;;;5093652;28;20616;-74
2024/02/09 14:13:38;;;;;;;3.37;1.10;;;16.50;99.90;;;;;;5093209;28;20644;-74
2024/02/09 14:16:06;;;;;;;3.80;1.20;;;16.50;99.90;;;;;;5093609;28;21165;-74
2024/02/09 14:18:33;;;;;;;4.63;1.10;;;16.60;99.90;;;;;;5093143;28;20199;-74
2024/02/09 14:21:02;;;;;;;1.97;0.80;;;16.60;99.90;;;;;;5111616;28;20636;-74
2024/02/09 14:23:28;;;;;;;2.70;0.70;;;16.60;99.90;;;;;;5076467;28;20593;-74
2024/02/09 14:25:57;;;;;;;2.47;1.00;;;16.60;99.90;;;;;;5111744;28;20680;-73
2024/02/09 14:28:24;;;;;;;1.50;0.70;;;16.60;99.90;;;;;;5094320;28;20592;-74
2024/02/09 14:30:50;;;;;;;2.47;0.90;;;16.60;99.90;;;;;;5111367;28;21105;-74
2024/02/09 14:33:16;;;;;;;1.90;1.00;;;16.70;99.90;;;;;;5075871;28;20628;-73